Página principal
METAR-TAF:

METAR-TAF

Aeroportos :

Bahrein, Bahrein

Aeroporto Internacional do Bahrain

latitude: 26-16N, longitude: 050-39E, altura: 2 m

Observação actual do tempo

O boletim foi feito há 43 minutos, às 14:30 UTC
Vento 20 kt de noroeste
Temperatura 18°C
Humidade 59%
Pressão 1018 hPa
Visibilidade 10 km ou mais
sem nuvens abaixo de 1500 metros e sem cumulonimbus

METAR: OBBI 161430Z 32020KT CAVOK 18/10 Q1018 NOSIG

Hora: 18:13 (15:13 UTC)

Previsão

O boletim foi feito há 4 horas e 13 minutos, às 11:00 UTC
Previsão válida de 16 às 12 UTC a 17 às 18 UTC
Vento 17 kt de nor-noroeste com rajadas de 27 kt
Visibilidade 10 km ou mais
Nuvens dispersasa uma altura de 3000 ft
Tornando-se
de 17 às 02 UTC a 17 às 04 UTC
Vento 15 kt de nor-noroeste

TAF: OBBI 161100Z 1612/1718 33017G27KT 9999 SCT030 BECMG 1702/1704 33015KT

Observações e previsões do tempo de mais de 4000 aeroportos (mensagens METAR e TAF).

As estações disponíveis são os pontos amarelos e vermelhos sobre o mapa.

Mova o rato sobre o mapa para ver o nome da estação.

Depois clique no ponto para visualizar as observações e previsões meteorológicas.

Para alterar o mapa : clique nos botões verdes com uma cruz preta para aumentar o zoom; no botão verde com uma pitada de zoom; ou nas setas verdes para mapas adjacentes.


METAR-TAF: